Aberlour, United Kingdom
Current Conditions -  °F | °C
As of 7:50 PM on Saturday 20 Dec 2014 (Local Time) from EGQS Reporting Station
Broken Clouds Broken Clouds  
Wind Chill: 34°   Ceiling: 10000
Heat Index: 41°   Visibility: 6mi
Dew Point: 36°   Wind: 12mph
Humidity: 81%   Direction: 240°WSW
Pressure: 30.06"   Gusts: NA
Location:  57.53°N, 3.21°W
Report Text: EGQS 201950Z 24010KT 9999 FEW045 BKN100 05/02 Q1018 BLU
Loading
Personal Weather Stations






























Interactive Weather Map New forecast layout! Learn more

10-Day Weather Forecast

Advertisements
Track Severe Weather on mobile